• Join FlightAware (Why Join?)
  • Login
  • US Flag 
03:12PM EST


 

Airport Tracker/Info


-or-


 

Live Flight TrackerFlight Track Log ✈ EJA831 ✈ 23-Dec-2013 ✈ KMDW - KSDF

Flight Track Log - Related Links

Times and Time Zones

All times are in EST time to prevent confusion due to time zone crossing. See the EJA831 flight status page for this flight to view local times or setup timezone preferences in your user account.

Time Position Orientation Groundspeed Altitude Reporting Facility
EST Latitude Longitude Course Direction KTS MPH feet Rate Location/Type
07:46PM 41.7833 -87.8000 171° South 192 221 2,900  Level Chicago TRACON
07:47PM 41.6950 -87.8228 191° South 238 274 6,300 2,769 Climbing Chicago Center
07:48PM 41.6203 -87.7978 166° South 270 311 9,500 3,048 Climbing Chicago Center
07:49PM 41.5425 -87.7692 165° South 288 331 12,600 3,512 Climbing Chicago Center
07:50PM 41.4544 -87.7372 165° South 320 368 16,700 3,707 Climbing Chicago Center
07:51PM 41.3849 -87.5167 171° South  Level Estimated
07:51PM 41.3656 -87.7258 175° South 319 367 20,200  Level Chicago Center
07:52PM 41.2733 -87.7267 180° South 324 373 22,600 2,419 Climbing Chicago Center
07:53PM 41.1772 -87.7244 179° South 340 391 25,200 2,146 Climbing Chicago Center
07:54PM 41.0608 -87.7081 174° South 349 402 27,000 878 Climbing Chicago Center
07:55PM 40.9578 -87.6911 173° South 368 423 27,000  Level Chicago Center
07:57PM 40.8556 -87.6772 174° South 369 425 27,000  Level Chicago Center
07:58PM 40.7519 -87.6572 172° South 376 433 27,000  Level Chicago Center
07:59PM 40.6492 -87.6211 165° South 382 440 27,000 -341 Level Chicago Center
08:00PM 40.5489 -87.5675 158° South 396 456 26,300 -484 Descending Chicago Center
08:01PM 40.4539 -87.5017 152° Southeast 388 447 26,000 -145 Descending Chicago Center
08:02PM 40.3467 -87.4292 153° Southeast 388 447 26,000  Level Chicago Center
08:03PM 40.2533 -87.3617 151° Southeast 386 444 26,000  Level Chicago Center
08:04PM 40.1592 -87.2931 151° Southeast 389 448 26,000  Level Chicago Center
08:05PM 40.0653 -87.2272 152° Southeast 386 444 26,000  Level Chicago Center
08:06PM 39.9686 -87.1619 153° Southeast 385 443 26,000  Level Indianapolis Center
08:07PM 39.8756 -87.0969 152° Southeast 383 441 26,000  Level Indianapolis Center
08:08PM 39.7833 -87.0328 152° Southeast 381 438 26,000  Level Indianapolis Center
08:09PM 39.6925 -86.9689 152° Southeast 376 433 26,000  Level Indianapolis Center
08:10PM 39.6008 -86.9053 152° Southeast 377 434 26,000  Level Indianapolis Center
08:11PM 39.5103 -86.8439 152° Southeast 373 429 26,000  Level Indianapolis Center
08:12PM 39.4022 -86.7692 152° Southeast 370 426 26,000  Level Indianapolis Center
08:13PM 39.3128 -86.7078 152° Southeast 368 423 26,000  Level Indianapolis Center
08:14PM 39.2239 -86.6472 152° Southeast 365 420 26,000 -98 Level Indianapolis Center
08:15PM 39.1369 -86.5872 152° Southeast 363 418 25,800 -1,610 Descending Indianapolis Center
08:16PM 39.0503 -86.5292 153° Southeast 357 411 22,700 -3,024 Descending Indianapolis Center
08:17PM 38.9633 -86.4714 153° Southeast 355 409 19,600 -2,976 Descending Indianapolis Center
08:18PM 38.8742 -86.4094 152° Southeast 351 404 16,600 -2,976 Descending Indianapolis Center
08:19PM 38.7886 -86.3522 152° Southeast 347 399 13,500 -2,607 Descending Indianapolis Center
08:20PM 38.7081 -86.2942 151° Southeast 336 387 11,300 -1,659 Descending Indianapolis Center
08:21PM 38.6481 -86.2217 137° Southeast 299 344 10,100 -1,268 Descending Indianapolis Center
08:22PM 38.5886 -86.1514 137° Southeast 289 333 8,700 -1,610 Descending Indianapolis Center
08:23PM 38.5078 -86.0972 152° Southeast 276 318 6,800 -1,317 Descending Indianapolis Center
08:24PM 38.4375 -86.0553 155° Southeast 276 318 6,000 -390 Descending Indianapolis Center
08:25PM 38.3697 -86.0161 156° South 270 311 6,000  Level Indianapolis Center
08:26PM 38.3003 -85.9742 155° Southeast 271 312 6,000  Level Indianapolis Center
08:27PM 38.2378 -85.9167 144° Southeast 274 315 6,000  Level Indianapolis Center
08:28PM 38.1736 -85.8619 146° Southeast 275 316 6,000 -341 Level Indianapolis Center
08:29PM 38.1056 -85.8292 159° South 269 310 5,300 -927 Descending Indianapolis Center
08:30PM 38.0369 -85.8108 168° South 257 296 4,100 -1,024 Descending Indianapolis Center
08:31PM 37.9761 -85.7722 153° Southeast 251 289 3,200 -537 Descending Indianapolis Center
08:32PM 37.9544 -85.6892 108° East 247 284 3,000 -146 Descending Indianapolis Center
08:33PM 37.9981 -85.6808 North 168 193 2,900 -333 Descending Indianapolis Center
08:36PM 38.1000 -85.7000 352° North 122 140 1,900 -438 Descending Louisville TRACON